sensor_id;sensor_type;location;lat;lon;timestamp;P1;durP1;ratioP1;P2;durP2;ratioP2
54193;SDS011;40102;50.906;6.972;2022-12-18T00:01:30;17.65;;;7.43;;
54193;SDS011;40102;50.906;6.972;2022-12-18T00:03:58;20.50;;;7.60;;
54193;SDS011;40102;50.906;6.972;2022-12-18T00:06:25;21.17;;;7.97;;
54193;SDS011;40102;50.906;6.972;2022-12-18T00:08:52;18.70;;;7.43;;
54193;SDS011;40102;50.906;6.972;2022-12-18T00:11:19;21.27;;;8.45;;
54193;SDS011;40102;50.906;6.972;2022-12-18T00:13:46;19.30;;;7.35;;
54193;SDS011;40102;50.906;6.972;2022-12-18T00:16:13;22.58;;;8.25;;
54193;SDS011;40102;50.906;6.972;2022-12-18T00:18:41;22.67;;;7.53;;
54193;SDS011;40102;50.906;6.972;2022-12-18T00:21:07;22.15;;;8.25;;
54193;SDS011;40102;50.906;6.972;2022-12-18T00:23:34;17.17;;;8.05;;
54193;SDS011;40102;50.906;6.972;2022-12-18T00:26:02;18.85;;;7.65;;
54193;SDS011;40102;50.906;6.972;2022-12-18T00:28:29;17.77;;;7.45;;
54193;SDS011;40102;50.906;6.972;2022-12-18T00:31:01;19.95;;;7.43;;
54193;SDS011;40102;50.906;6.972;2022-12-18T00:33:31;21.15;;;8.10;;
54193;SDS011;40102;50.906;6.972;2022-12-18T00:36:03;19.10;;;7.15;;
54193;SDS011;40102;50.906;6.972;2022-12-18T00:38:34;21.60;;;7.55;;
54193;SDS011;40102;50.906;6.972;2022-12-18T00:40:59;20.27;;;7.90;;
54193;SDS011;40102;50.906;6.972;2022-12-18T00:43:25;20.38;;;7.82;;
54193;SDS011;40102;50.906;6.972;2022-12-18T00:45:51;17.77;;;7.07;;
54193;SDS011;40102;50.906;6.972;2022-12-18T00:48:16;17.83;;;7.25;;
54193;SDS011;40102;50.906;6.972;2022-12-18T00:50:42;17.40;;;8.27;;
54193;SDS011;40102;50.906;6.972;2022-12-18T00:53:07;18.92;;;7.10;;
54193;SDS011;40102;50.906;6.972;2022-12-18T00:55:36;16.48;;;7.05;;
54193;SDS011;40102;50.906;6.972;2022-12-18T00:58:02;19.00;;;7.50;;
54193;SDS011;40102;50.906;6.972;2022-12-18T01:00:28;20.50;;;7.97;;
54193;SDS011;40102;50.906;6.972;2022-12-18T01:02:53;19.17;;;7.28;;
54193;SDS011;40102;50.906;6.972;2022-12-18T01:05:18;20.23;;;7.70;;
54193;SDS011;40102;50.906;6.972;2022-12-18T01:07:44;19.05;;;7.03;;
54193;SDS011;40102;50.906;6.972;2022-12-18T01:10:09;19.05;;;7.82;;
54193;SDS011;40102;50.906;6.972;2022-12-18T01:12:37;21.17;;;7.32;;
54193;SDS011;40102;50.906;6.972;2022-12-18T01:15:04;16.83;;;7.25;;
54193;SDS011;40102;50.906;6.972;2022-12-18T01:17:32;19.60;;;7.07;;
54193;SDS011;40102;50.906;6.972;2022-12-18T01:19:57;15.25;;;7.32;;
54193;SDS011;40102;50.906;6.972;2022-12-18T01:22:23;18.88;;;8.07;;
54193;SDS011;40102;50.906;6.972;2022-12-18T01:24:48;17.40;;;7.18;;
54193;SDS011;40102;50.906;6.972;2022-12-18T01:27:14;20.35;;;8.18;;
54193;SDS011;40102;50.906;6.972;2022-12-18T01:29:39;19.15;;;7.88;;
54193;SDS011;40102;50.906;6.972;2022-12-18T01:32:04;17.40;;;7.47;;
54193;SDS011;40102;50.906;6.972;2022-12-18T01:34:30;19.08;;;7.53;;
54193;SDS011;40102;50.906;6.972;2022-12-18T01:36:56;20.30;;;7.88;;
54193;SDS011;40102;50.906;6.972;2022-12-18T01:39:21;17.00;;;7.75;;
54193;SDS011;40102;50.906;6.972;2022-12-18T01:41:50;20.65;;;7.47;;
54193;SDS011;40102;50.906;6.972;2022-12-18T01:47:20;18.67;;;6.28;;
54193;SDS011;40102;50.906;6.972;2022-12-18T01:49:46;19.13;;;7.93;;
54193;SDS011;40102;50.906;6.972;2022-12-18T01:52:13;23.23;;;8.25;;
54193;SDS011;40102;50.906;6.972;2022-12-18T01:54:39;20.42;;;8.80;;
54193;SDS011;40102;50.906;6.972;2022-12-18T01:57:04;18.70;;;8.20;;
54193;SDS011;40102;50.906;6.972;2022-12-18T01:59:30;22.00;;;7.90;;
54193;SDS011;40102;50.906;6.972;2022-12-18T02:01:58;20.25;;;8.02;;
54193;SDS011;40102;50.906;6.972;2022-12-18T02:04:27;19.25;;;7.68;;
54193;SDS011;40102;50.906;6.972;2022-12-18T02:06:59;18.33;;;7.80;;
54193;SDS011;40102;50.906;6.972;2022-12-18T02:10:22;17.85;;;7.30;;
54193;SDS011;40102;50.906;6.972;2022-12-18T02:12:38;17.42;;;7.45;;
54193;SDS011;40102;50.906;6.972;2022-12-18T02:15:19;18.90;;;7.60;;
54193;SDS011;40102;50.906;6.972;2022-12-18T02:17:50;16.98;;;7.25;;
54193;SDS011;40102;50.906;6.972;2022-12-18T02:20:36;15.63;;;7.07;;
54193;SDS011;40102;50.906;6.972;2022-12-18T02:23:08;16.98;;;6.72;;
54193;SDS011;40102;50.906;6.972;2022-12-18T02:28:18;20.40;;;8.27;;
54193;SDS011;40102;50.906;6.972;2022-12-18T02:30:46;18.88;;;7.90;;
54193;SDS011;40102;50.906;6.972;2022-12-18T02:33:14;16.83;;;8.20;;
54193;SDS011;40102;50.906;6.972;2022-12-18T02:35:40;16.77;;;7.50;;
54193;SDS011;40102;50.906;6.972;2022-12-18T02:38:07;24.90;;;9.45;;
54193;SDS011;40102;50.906;6.972;2022-12-18T02:40:34;20.60;;;8.45;;
54193;SDS011;40102;50.906;6.972;2022-12-18T02:43:11;19.13;;;8.32;;
54193;SDS011;40102;50.906;6.972;2022-12-18T02:45:48;19.40;;;8.38;;
54193;SDS011;40102;50.906;6.972;2022-12-18T02:48:17;25.70;;;8.60;;
54193;SDS011;40102;50.906;6.972;2022-12-18T02:50:52;21.42;;;8.15;;
54193;SDS011;40102;50.906;6.972;2022-12-18T02:56:18;20.30;;;8.70;;
54193;SDS011;40102;50.906;6.972;2022-12-18T03:01:37;17.48;;;7.63;;
54193;SDS011;40102;50.906;6.972;2022-12-18T03:04:26;18.35;;;7.55;;
54193;SDS011;40102;50.906;6.972;2022-12-18T03:06:54;16.08;;;7.45;;
54193;SDS011;40102;50.906;6.972;2022-12-18T03:09:29;17.98;;;7.70;;
54193;SDS011;40102;50.906;6.972;2022-12-18T03:12:45;16.85;;;7.50;;
54193;SDS011;40102;50.906;6.972;2022-12-18T03:15:10;20.25;;;7.55;;
54193;SDS011;40102;50.906;6.972;2022-12-18T03:17:42;20.73;;;8.73;;
54193;SDS011;40102;50.906;6.972;2022-12-18T03:20:14;19.00;;;8.27;;
54193;SDS011;40102;50.906;6.972;2022-12-18T03:22:44;20.90;;;7.60;;
54193;SDS011;40102;50.906;6.972;2022-12-18T03:25:13;21.55;;;8.10;;
54193;SDS011;40102;50.906;6.972;2022-12-18T03:27:42;17.83;;;8.23;;
54193;SDS011;40102;50.906;6.972;2022-12-18T03:30:12;19.05;;;8.55;;
54193;SDS011;40102;50.906;6.972;2022-12-18T03:32:41;17.52;;;7.68;;
54193;SDS011;40102;50.906;6.972;2022-12-18T03:35:18;17.85;;;6.63;;
54193;SDS011;40102;50.906;6.972;2022-12-18T03:37:47;21.20;;;8.68;;
54193;SDS011;40102;50.906;6.972;2022-12-18T03:40:13;15.02;;;6.70;;
54193;SDS011;40102;50.906;6.972;2022-12-18T03:45:18;16.48;;;7.68;;
54193;SDS011;40102;50.906;6.972;2022-12-18T03:48:33;16.52;;;7.18;;
54193;SDS011;40102;50.906;6.972;2022-12-18T03:50:43;16.80;;;7.72;;
54193;SDS011;40102;50.906;6.972;2022-12-18T03:53:29;17.33;;;7.32;;
54193;SDS011;40102;50.906;6.972;2022-12-18T03:56:10;15.25;;;6.90;;
54193;SDS011;40102;50.906;6.972;2022-12-18T03:58:39;16.73;;;7.30;;
54193;SDS011;40102;50.906;6.972;2022-12-18T04:01:06;15.82;;;6.82;;
54193;SDS011;40102;50.906;6.972;2022-12-18T04:03:34;19.48;;;7.88;;
54193;SDS011;40102;50.906;6.972;2022-12-18T04:06:01;19.30;;;8.48;;
54193;SDS011;40102;50.906;6.972;2022-12-18T04:08:28;19.80;;;7.35;;
54193;SDS011;40102;50.906;6.972;2022-12-18T04:10:54;17.75;;;7.32;;
54193;SDS011;40102;50.906;6.972;2022-12-18T04:13:38;17.63;;;7.90;;
54193;SDS011;40102;50.906;6.972;2022-12-18T04:16:04;17.27;;;7.80;;
54193;SDS011;40102;50.906;6.972;2022-12-18T04:18:30;20.45;;;8.32;;
54193;SDS011;40102;50.906;6.972;2022-12-18T04:20:55;19.48;;;7.75;;
54193;SDS011;40102;50.906;6.972;2022-12-18T04:23:21;17.15;;;8.13;;
54193;SDS011;40102;50.906;6.972;2022-12-18T04:25:46;17.10;;;7.72;;
54193;SDS011;40102;50.906;6.972;2022-12-18T04:28:12;21.35;;;8.68;;
54193;SDS011;40102;50.906;6.972;2022-12-18T04:30:38;17.13;;;8.02;;
54193;SDS011;40102;50.906;6.972;2022-12-18T04:33:03;20.02;;;7.78;;
54193;SDS011;40102;50.906;6.972;2022-12-18T04:35:29;22.27;;;8.95;;
54193;SDS011;40102;50.906;6.972;2022-12-18T04:37:55;20.20;;;9.05;;
54193;SDS011;40102;50.906;6.972;2022-12-18T04:40:20;23.90;;;8.15;;
54193;SDS011;40102;50.906;6.972;2022-12-18T04:42:46;22.45;;;9.00;;
54193;SDS011;40102;50.906;6.972;2022-12-18T04:45:11;20.05;;;8.35;;
54193;SDS011;40102;50.906;6.972;2022-12-18T04:47:37;24.52;;;9.18;;
54193;SDS011;40102;50.906;6.972;2022-12-18T04:50:02;23.10;;;8.57;;
54193;SDS011;40102;50.906;6.972;2022-12-18T04:52:28;20.42;;;8.13;;
54193;SDS011;40102;50.906;6.972;2022-12-18T04:54:56;21.75;;;9.55;;
54193;SDS011;40102;50.906;6.972;2022-12-18T04:57:21;21.02;;;8.30;;
54193;SDS011;40102;50.906;6.972;2022-12-18T04:59:47;23.33;;;8.73;;
54193;SDS011;40102;50.906;6.972;2022-12-18T05:02:12;18.77;;;7.45;;
54193;SDS011;40102;50.906;6.972;2022-12-18T05:04:37;19.98;;;8.68;;
54193;SDS011;40102;50.906;6.972;2022-12-18T05:07:03;20.88;;;8.30;;
54193;SDS011;40102;50.906;6.972;2022-12-18T05:09:29;17.58;;;7.53;;
54193;SDS011;40102;50.906;6.972;2022-12-18T05:11:54;21.70;;;8.48;;
54193;SDS011;40102;50.906;6.972;2022-12-18T05:14:19;23.63;;;8.35;;
54193;SDS011;40102;50.906;6.972;2022-12-18T05:16:45;22.38;;;7.88;;
54193;SDS011;40102;50.906;6.972;2022-12-18T05:19:10;24.23;;;8.48;;
54193;SDS011;40102;50.906;6.972;2022-12-18T05:21:35;23.23;;;9.75;;
54193;SDS011;40102;50.906;6.972;2022-12-18T05:24:01;21.73;;;9.02;;
54193;SDS011;40102;50.906;6.972;2022-12-18T05:26:26;22.75;;;9.10;;
54193;SDS011;40102;50.906;6.972;2022-12-18T05:28:52;23.48;;;8.38;;
54193;SDS011;40102;50.906;6.972;2022-12-18T05:31:19;19.85;;;8.57;;
54193;SDS011;40102;50.906;6.972;2022-12-18T05:33:44;23.80;;;9.32;;
54193;SDS011;40102;50.906;6.972;2022-12-18T05:36:10;21.77;;;9.20;;
54193;SDS011;40102;50.906;6.972;2022-12-18T05:38:37;20.95;;;8.07;;
54193;SDS011;40102;50.906;6.972;2022-12-18T05:41:03;26.73;;;9.75;;
54193;SDS011;40102;50.906;6.972;2022-12-18T05:43:30;23.83;;;8.35;;
54193;SDS011;40102;50.906;6.972;2022-12-18T05:45:55;24.58;;;9.23;;
54193;SDS011;40102;50.906;6.972;2022-12-18T05:48:22;19.63;;;8.25;;
54193;SDS011;40102;50.906;6.972;2022-12-18T05:50:48;22.58;;;8.95;;
54193;SDS011;40102;50.906;6.972;2022-12-18T05:53:16;19.52;;;8.35;;
54193;SDS011;40102;50.906;6.972;2022-12-18T05:55:44;21.38;;;8.50;;
54193;SDS011;40102;50.906;6.972;2022-12-18T05:58:11;20.33;;;8.52;;
54193;SDS011;40102;50.906;6.972;2022-12-18T06:00:39;21.85;;;9.00;;
54193;SDS011;40102;50.906;6.972;2022-12-18T06:03:06;19.65;;;8.45;;
54193;SDS011;40102;50.906;6.972;2022-12-18T06:05:35;23.73;;;9.07;;
54193;SDS011;40102;50.906;6.972;2022-12-18T06:08:05;23.08;;;8.82;;
54193;SDS011;40102;50.906;6.972;2022-12-18T06:10:30;21.92;;;9.23;;
54193;SDS011;40102;50.906;6.972;2022-12-18T06:12:56;22.40;;;8.38;;
54193;SDS011;40102;50.906;6.972;2022-12-18T06:15:22;23.38;;;9.45;;
54193;SDS011;40102;50.906;6.972;2022-12-18T06:17:47;27.98;;;9.45;;
54193;SDS011;40102;50.906;6.972;2022-12-18T06:20:12;21.00;;;8.57;;
54193;SDS011;40102;50.906;6.972;2022-12-18T06:22:38;18.65;;;7.85;;
54193;SDS011;40102;50.906;6.972;2022-12-18T06:25:03;27.60;;;10.15;;
54193;SDS011;40102;50.906;6.972;2022-12-18T06:27:30;20.98;;;8.82;;
54193;SDS011;40102;50.906;6.972;2022-12-18T06:29:55;19.70;;;8.60;;
54193;SDS011;40102;50.906;6.972;2022-12-18T06:32:21;22.00;;;8.60;;
54193;SDS011;40102;50.906;6.972;2022-12-18T06:34:46;17.95;;;6.93;;
54193;SDS011;40102;50.906;6.972;2022-12-18T06:37:12;21.80;;;8.80;;
54193;SDS011;40102;50.906;6.972;2022-12-18T06:39:37;20.75;;;8.80;;
54193;SDS011;40102;50.906;6.972;2022-12-18T06:42:03;21.48;;;9.30;;
54193;SDS011;40102;50.906;6.972;2022-12-18T06:44:28;20.90;;;8.43;;
54193;SDS011;40102;50.906;6.972;2022-12-18T06:46:54;25.77;;;10.18;;
54193;SDS011;40102;50.906;6.972;2022-12-18T06:49:20;24.30;;;9.40;;
54193;SDS011;40102;50.906;6.972;2022-12-18T06:51:47;21.92;;;8.20;;
54193;SDS011;40102;50.906;6.972;2022-12-18T06:54:12;27.50;;;8.93;;
54193;SDS011;40102;50.906;6.972;2022-12-18T06:56:40;20.48;;;9.07;;
54193;SDS011;40102;50.906;6.972;2022-12-18T06:59:06;23.15;;;9.18;;
54193;SDS011;40102;50.906;6.972;2022-12-18T07:01:31;22.30;;;9.63;;
54193;SDS011;40102;50.906;6.972;2022-12-18T07:03:57;19.95;;;9.15;;
54193;SDS011;40102;50.906;6.972;2022-12-18T07:06:23;25.00;;;10.23;;
54193;SDS011;40102;50.906;6.972;2022-12-18T07:08:50;22.70;;;9.57;;
54193;SDS011;40102;50.906;6.972;2022-12-18T07:11:16;22.27;;;9.25;;
54193;SDS011;40102;50.906;6.972;2022-12-18T07:13:43;24.48;;;9.50;;
54193;SDS011;40102;50.906;6.972;2022-12-18T07:16:10;19.23;;;7.30;;
54193;SDS011;40102;50.906;6.972;2022-12-18T07:18:37;23.77;;;9.20;;
54193;SDS011;40102;50.906;6.972;2022-12-18T07:21:04;25.95;;;10.82;;
54193;SDS011;40102;50.906;6.972;2022-12-18T07:23:34;22.25;;;9.23;;
54193;SDS011;40102;50.906;6.972;2022-12-18T07:26:04;24.05;;;9.55;;
54193;SDS011;40102;50.906;6.972;2022-12-18T07:28:31;23.65;;;9.25;;
54193;SDS011;40102;50.906;6.972;2022-12-18T07:30:58;28.13;;;10.57;;
54193;SDS011;40102;50.906;6.972;2022-12-18T07:33:34;20.73;;;8.77;;
54193;SDS011;40102;50.906;6.972;2022-12-18T07:36:00;21.60;;;8.23;;
54193;SDS011;40102;50.906;6.972;2022-12-18T07:38:28;23.67;;;9.45;;
54193;SDS011;40102;50.906;6.972;2022-12-18T07:40:54;19.70;;;8.40;;
54193;SDS011;40102;50.906;6.972;2022-12-18T07:43:19;24.50;;;9.27;;
54193;SDS011;40102;50.906;6.972;2022-12-18T07:45:45;22.52;;;9.63;;
54193;SDS011;40102;50.906;6.972;2022-12-18T07:48:10;17.15;;;7.95;;
54193;SDS011;40102;50.906;6.972;2022-12-18T07:50:36;20.13;;;8.57;;
54193;SDS011;40102;50.906;6.972;2022-12-18T07:53:02;24.00;;;9.23;;
54193;SDS011;40102;50.906;6.972;2022-12-18T07:55:30;22.17;;;8.90;;
54193;SDS011;40102;50.906;6.972;2022-12-18T07:57:56;22.73;;;9.30;;
54193;SDS011;40102;50.906;6.972;2022-12-18T08:00:21;26.55;;;10.18;;
54193;SDS011;40102;50.906;6.972;2022-12-18T08:02:47;21.52;;;9.25;;
54193;SDS011;40102;50.906;6.972;2022-12-18T08:05:12;26.58;;;10.50;;
54193;SDS011;40102;50.906;6.972;2022-12-18T08:07:38;22.55;;;9.23;;
54193;SDS011;40102;50.906;6.972;2022-12-18T08:10:04;18.80;;;8.00;;
54193;SDS011;40102;50.906;6.972;2022-12-18T08:12:30;25.05;;;10.00;;
54193;SDS011;40102;50.906;6.972;2022-12-18T08:14:56;27.00;;;10.00;;
54193;SDS011;40102;50.906;6.972;2022-12-18T08:17:21;19.08;;;8.07;;
54193;SDS011;40102;50.906;6.972;2022-12-18T08:19:47;18.83;;;8.93;;
54193;SDS011;40102;50.906;6.972;2022-12-18T08:22:12;21.83;;;8.93;;
54193;SDS011;40102;50.906;6.972;2022-12-18T08:24:39;22.40;;;8.98;;
54193;SDS011;40102;50.906;6.972;2022-12-18T08:27:04;23.75;;;9.93;;
54193;SDS011;40102;50.906;6.972;2022-12-18T08:29:30;20.35;;;9.20;;
54193;SDS011;40102;50.906;6.972;2022-12-18T08:31:56;20.27;;;7.63;;
54193;SDS011;40102;50.906;6.972;2022-12-18T08:34:22;26.20;;;9.25;;
54193;SDS011;40102;50.906;6.972;2022-12-18T08:36:47;32.83;;;9.48;;
54193;SDS011;40102;50.906;6.972;2022-12-18T08:39:13;33.60;;;11.70;;
54193;SDS011;40102;50.906;6.972;2022-12-18T08:41:38;23.08;;;9.00;;
54193;SDS011;40102;50.906;6.972;2022-12-18T08:44:04;21.30;;;8.73;;
54193;SDS011;40102;50.906;6.972;2022-12-18T08:46:47;25.98;;;8.40;;
54193;SDS011;40102;50.906;6.972;2022-12-18T08:49:16;24.08;;;9.85;;
54193;SDS011;40102;50.906;6.972;2022-12-18T08:51:41;22.42;;;9.80;;
54193;SDS011;40102;50.906;6.972;2022-12-18T08:54:06;19.38;;;8.95;;
54193;SDS011;40102;50.906;6.972;2022-12-18T08:56:32;20.35;;;8.85;;
54193;SDS011;40102;50.906;6.972;2022-12-18T08:58:59;19.63;;;8.50;;
54193;SDS011;40102;50.906;6.972;2022-12-18T09:01:24;22.50;;;9.25;;
54193;SDS011;40102;50.906;6.972;2022-12-18T09:03:50;22.65;;;9.13;;
54193;SDS011;40102;50.906;6.972;2022-12-18T09:06:16;24.33;;;9.45;;
54193;SDS011;40102;50.906;6.972;2022-12-18T09:08:43;23.85;;;9.75;;
54193;SDS011;40102;50.906;6.972;2022-12-18T09:11:13;23.38;;;9.23;;
54193;SDS011;40102;50.906;6.972;2022-12-18T09:13:49;18.00;;;8.57;;
54193;SDS011;40102;50.906;6.972;2022-12-18T09:16:15;19.67;;;9.00;;
54193;SDS011;40102;50.906;6.972;2022-12-18T09:18:44;23.92;;;8.85;;
54193;SDS011;40102;50.906;6.972;2022-12-18T09:21:11;19.65;;;8.93;;
54193;SDS011;40102;50.906;6.972;2022-12-18T09:26:07;19.05;;;8.00;;
54193;SDS011;40102;50.906;6.972;2022-12-18T09:28:35;18.45;;;7.18;;
54193;SDS011;40102;50.906;6.972;2022-12-18T09:31:05;20.27;;;8.60;;
54193;SDS011;40102;50.906;6.972;2022-12-18T09:33:41;23.23;;;9.52;;
54193;SDS011;40102;50.906;6.972;2022-12-18T09:36:14;25.38;;;10.20;;
54193;SDS011;40102;50.906;6.972;2022-12-18T09:43:57;21.17;;;8.57;;
54193;SDS011;40102;50.906;6.972;2022-12-18T09:46:46;20.33;;;8.65;;
54193;SDS011;40102;50.906;6.972;2022-12-18T09:49:15;25.08;;;9.35;;
54193;SDS011;40102;50.906;6.972;2022-12-18T09:51:47;20.05;;;8.77;;
54193;SDS011;40102;50.906;6.972;2022-12-18T09:54:32;20.65;;;9.60;;
54193;SDS011;40102;50.906;6.972;2022-12-18T09:57:01;18.80;;;7.55;;
54193;SDS011;40102;50.906;6.972;2022-12-18T09:59:30;19.98;;;8.95;;
54193;SDS011;40102;50.906;6.972;2022-12-18T10:02:08;19.00;;;8.35;;
54193;SDS011;40102;50.906;6.972;2022-12-18T10:04:41;20.60;;;9.27;;
54193;SDS011;40102;50.906;6.972;2022-12-18T10:07:16;19.92;;;8.57;;
54193;SDS011;40102;50.906;6.972;2022-12-18T10:09:55;20.13;;;8.90;;
54193;SDS011;40102;50.906;6.972;2022-12-18T10:12:38;19.40;;;8.52;;
54193;SDS011;40102;50.906;6.972;2022-12-18T10:17:49;22.23;;;9.07;;
54193;SDS011;40102;50.906;6.972;2022-12-18T10:28:10;17.42;;;8.27;;
54193;SDS011;40102;50.906;6.972;2022-12-18T10:30:38;20.60;;;8.88;;
54193;SDS011;40102;50.906;6.972;2022-12-18T10:33:05;16.80;;;7.85;;
54193;SDS011;40102;50.906;6.972;2022-12-18T10:35:30;21.60;;;9.02;;
54193;SDS011;40102;50.906;6.972;2022-12-18T10:38:06;22.27;;;8.50;;
54193;SDS011;40102;50.906;6.972;2022-12-18T10:40:32;23.85;;;9.70;;
54193;SDS011;40102;50.906;6.972;2022-12-18T10:43:13;19.67;;;8.25;;
54193;SDS011;40102;50.906;6.972;2022-12-18T10:45:40;21.30;;;8.80;;
54193;SDS011;40102;50.906;6.972;2022-12-18T10:48:21;19.30;;;8.07;;
54193;SDS011;40102;50.906;6.972;2022-12-18T10:50:48;20.13;;;8.50;;
54193;SDS011;40102;50.906;6.972;2022-12-18T10:53:19;19.05;;;8.38;;
54193;SDS011;40102;50.906;6.972;2022-12-18T10:55:50;17.13;;;8.07;;
54193;SDS011;40102;50.906;6.972;2022-12-18T11:06:20;18.80;;;8.55;;
54193;SDS011;40102;50.906;6.972;2022-12-18T11:11:52;22.15;;;8.90;;
54193;SDS011;40102;50.906;6.972;2022-12-18T11:14:24;18.52;;;8.32;;
54193;SDS011;40102;50.906;6.972;2022-12-18T11:16:50;22.15;;;8.02;;
54193;SDS011;40102;50.906;6.972;2022-12-18T11:19:26;20.63;;;8.70;;
54193;SDS011;40102;50.906;6.972;2022-12-18T11:22:23;25.92;;;8.70;;
54193;SDS011;40102;50.906;6.972;2022-12-18T11:27:31;20.50;;;8.95;;
54193;SDS011;40102;50.906;6.972;2022-12-18T11:30:10;16.70;;;7.65;;
54193;SDS011;40102;50.906;6.972;2022-12-18T11:32:47;18.95;;;7.78;;
54193;SDS011;40102;50.906;6.972;2022-12-18T11:35:21;17.40;;;7.68;;
54193;SDS011;40102;50.906;6.972;2022-12-18T11:37:54;23.40;;;9.88;;
54193;SDS011;40102;50.906;6.972;2022-12-18T11:40:30;25.88;;;9.95;;
54193;SDS011;40102;50.906;6.972;2022-12-18T11:45:56;22.70;;;8.57;;
54193;SDS011;40102;50.906;6.972;2022-12-18T11:48:28;14.52;;;5.63;;
54193;SDS011;40102;50.906;6.972;2022-12-18T11:51:02;24.27;;;9.57;;
54193;SDS011;40102;50.906;6.972;2022-12-18T11:53:34;21.38;;;9.18;;
54193;SDS011;40102;50.906;6.972;2022-12-18T11:58:38;29.08;;;9.90;;
54193;SDS011;40102;50.906;6.972;2022-12-18T12:01:10;23.38;;;9.40;;
54193;SDS011;40102;50.906;6.972;2022-12-18T12:09:43;23.67;;;10.35;;
54193;SDS011;40102;50.906;6.972;2022-12-18T12:12:28;23.67;;;9.23;;
54193;SDS011;40102;50.906;6.972;2022-12-18T12:20:53;20.75;;;9.13;;
54193;SDS011;40102;50.906;6.972;2022-12-18T12:26:24;19.98;;;8.65;;
54193;SDS011;40102;50.906;6.972;2022-12-18T12:29:07;20.90;;;9.43;;
54193;SDS011;40102;50.906;6.972;2022-12-18T12:36:45;22.77;;;9.13;;
54193;SDS011;40102;50.906;6.972;2022-12-18T12:39:30;23.52;;;9.90;;
54193;SDS011;40102;50.906;6.972;2022-12-18T12:41:59;21.40;;;9.43;;
54193;SDS011;40102;50.906;6.972;2022-12-18T12:44:50;23.40;;;10.60;;
54193;SDS011;40102;50.906;6.972;2022-12-18T12:47:22;19.52;;;8.63;;
54193;SDS011;40102;50.906;6.972;2022-12-18T12:49:51;22.85;;;9.73;;
54193;SDS011;40102;50.906;6.972;2022-12-18T12:52:21;20.55;;;9.13;;
54193;SDS011;40102;50.906;6.972;2022-12-18T12:54:55;22.30;;;9.48;;
54193;SDS011;40102;50.906;6.972;2022-12-18T13:00:09;22.20;;;10.27;;
54193;SDS011;40102;50.906;6.972;2022-12-18T13:05:38;22.85;;;9.70;;
54193;SDS011;40102;50.906;6.972;2022-12-18T13:09:04;23.98;;;9.95;;
54193;SDS011;40102;50.906;6.972;2022-12-18T13:11:28;23.65;;;9.68;;
54193;SDS011;40102;50.906;6.972;2022-12-18T13:14:24;26.38;;;10.60;;
54193;SDS011;40102;50.906;6.972;2022-12-18T13:16:54;25.52;;;10.45;;
54193;SDS011;40102;50.906;6.972;2022-12-18T13:20:02;22.88;;;9.23;;
54193;SDS011;40102;50.906;6.972;2022-12-18T13:22:30;25.55;;;9.90;;
54193;SDS011;40102;50.906;6.972;2022-12-18T13:25:00;26.13;;;10.13;;
54193;SDS011;40102;50.906;6.972;2022-12-18T13:43:58;23.90;;;10.52;;
54193;SDS011;40102;50.906;6.972;2022-12-18T13:46:30;22.33;;;9.50;;
54193;SDS011;40102;50.906;6.972;2022-12-18T13:51:49;21.88;;;9.75;;
54193;SDS011;40102;50.906;6.972;2022-12-18T13:56:58;26.58;;;10.40;;
54193;SDS011;40102;50.906;6.972;2022-12-18T13:59:24;23.00;;;9.63;;
54193;SDS011;40102;50.906;6.972;2022-12-18T14:02:13;23.95;;;10.90;;
54193;SDS011;40102;50.906;6.972;2022-12-18T14:04:40;27.38;;;11.65;;
54193;SDS011;40102;50.906;6.972;2022-12-18T14:07:16;23.60;;;10.20;;
54193;SDS011;40102;50.906;6.972;2022-12-18T14:09:54;23.90;;;10.00;;
54193;SDS011;40102;50.906;6.972;2022-12-18T14:12:26;27.77;;;10.80;;
54193;SDS011;40102;50.906;6.972;2022-12-18T14:15:19;23.63;;;10.15;;
54193;SDS011;40102;50.906;6.972;2022-12-18T14:18:36;25.33;;;9.93;;
54193;SDS011;40102;50.906;6.972;2022-12-18T14:21:18;26.58;;;10.68;;
54193;SDS011;40102;50.906;6.972;2022-12-18T14:23:46;25.48;;;9.60;;
54193;SDS011;40102;50.906;6.972;2022-12-18T14:26:28;21.95;;;9.75;;
54193;SDS011;40102;50.906;6.972;2022-12-18T14:28:58;25.35;;;10.95;;
54193;SDS011;40102;50.906;6.972;2022-12-18T14:31:29;23.25;;;10.25;;
54193;SDS011;40102;50.906;6.972;2022-12-18T14:33:55;24.73;;;10.57;;
54193;SDS011;40102;50.906;6.972;2022-12-18T14:36:24;23.48;;;9.98;;
54193;SDS011;40102;50.906;6.972;2022-12-18T14:38:55;21.80;;;9.75;;
54193;SDS011;40102;50.906;6.972;2022-12-18T14:43:49;26.92;;;9.93;;
54193;SDS011;40102;50.906;6.972;2022-12-18T14:51:24;27.75;;;10.48;;
54193;SDS011;40102;50.906;6.972;2022-12-18T14:53:54;24.05;;;10.40;;
54193;SDS011;40102;50.906;6.972;2022-12-18T14:56:21;28.38;;;10.50;;
54193;SDS011;40102;50.906;6.972;2022-12-18T14:59:32;28.80;;;11.93;;
54193;SDS011;40102;50.906;6.972;2022-12-18T15:04:28;28.15;;;10.95;;
54193;SDS011;40102;50.906;6.972;2022-12-18T15:09:42;26.38;;;11.25;;
54193;SDS011;40102;50.906;6.972;2022-12-18T15:12:26;26.55;;;11.43;;
54193;SDS011;40102;50.906;6.972;2022-12-18T15:14:58;23.67;;;10.75;;
54193;SDS011;40102;50.906;6.972;2022-12-18T15:17:23;29.67;;;11.55;;
54193;SDS011;40102;50.906;6.972;2022-12-18T15:19:50;23.30;;;9.77;;
54193;SDS011;40102;50.906;6.972;2022-12-18T15:22:19;18.17;;;8.05;;
54193;SDS011;40102;50.906;6.972;2022-12-18T15:24:47;28.77;;;11.63;;
54193;SDS011;40102;50.906;6.972;2022-12-18T15:27:23;30.67;;;11.73;;
54193;SDS011;40102;50.906;6.972;2022-12-18T15:32:40;30.27;;;11.57;;
54193;SDS011;40102;50.906;6.972;2022-12-18T15:37:34;24.05;;;10.68;;
54193;SDS011;40102;50.906;6.972;2022-12-18T15:40:00;30.15;;;12.10;;
54193;SDS011;40102;50.906;6.972;2022-12-18T15:42:27;26.92;;;11.60;;
54193;SDS011;40102;50.906;6.972;2022-12-18T15:45:11;28.00;;;11.48;;
54193;SDS011;40102;50.906;6.972;2022-12-18T15:47:38;23.20;;;11.18;;
54193;SDS011;40102;50.906;6.972;2022-12-18T15:50:04;29.80;;;11.77;;
54193;SDS011;40102;50.906;6.972;2022-12-18T15:52:32;25.85;;;10.73;;
54193;SDS011;40102;50.906;6.972;2022-12-18T15:55:05;26.77;;;11.52;;
54193;SDS011;40102;50.906;6.972;2022-12-18T15:57:54;28.65;;;12.25;;
54193;SDS011;40102;50.906;6.972;2022-12-18T16:00:19;31.25;;;12.13;;
54193;SDS011;40102;50.906;6.972;2022-12-18T16:02:45;29.50;;;11.93;;
54193;SDS011;40102;50.906;6.972;2022-12-18T16:05:14;29.75;;;12.80;;
54193;SDS011;40102;50.906;6.972;2022-12-18T16:07:41;31.80;;;13.00;;
54193;SDS011;40102;50.906;6.972;2022-12-18T16:10:07;29.88;;;12.75;;
54193;SDS011;40102;50.906;6.972;2022-12-18T16:12:33;28.38;;;12.57;;
54193;SDS011;40102;50.906;6.972;2022-12-18T16:14:58;29.63;;;12.50;;
54193;SDS011;40102;50.906;6.972;2022-12-18T16:17:24;30.17;;;11.95;;
54193;SDS011;40102;50.906;6.972;2022-12-18T16:19:49;30.42;;;13.15;;
54193;SDS011;40102;50.906;6.972;2022-12-18T16:22:22;25.13;;;11.52;;
54193;SDS011;40102;50.906;6.972;2022-12-18T16:24:52;30.95;;;13.15;;
54193;SDS011;40102;50.906;6.972;2022-12-18T16:27:19;28.83;;;12.93;;
54193;SDS011;40102;50.906;6.972;2022-12-18T16:29:45;31.38;;;13.23;;
54193;SDS011;40102;50.906;6.972;2022-12-18T16:32:12;28.85;;;11.63;;
54193;SDS011;40102;50.906;6.972;2022-12-18T16:34:40;27.10;;;11.80;;
54193;SDS011;40102;50.906;6.972;2022-12-18T16:37:07;23.77;;;10.95;;
54193;SDS011;40102;50.906;6.972;2022-12-18T16:39:33;29.10;;;11.82;;
54193;SDS011;40102;50.906;6.972;2022-12-18T16:42:00;27.98;;;12.20;;
54193;SDS011;40102;50.906;6.972;2022-12-18T16:44:27;32.25;;;12.50;;